sensor_id;sensor_type;location;lat;lon;timestamp;P1;durP1;ratioP1;P2;durP2;ratioP2
25045;SDS011;13044;49.304;12.840;2023-05-14T00:00:42;11.45;;;8.50;;
25045;SDS011;13044;49.304;12.840;2023-05-14T00:03:08;11.07;;;8.32;;
25045;SDS011;13044;49.304;12.840;2023-05-14T00:05:35;11.02;;;8.68;;
25045;SDS011;13044;49.304;12.840;2023-05-14T00:08:02;10.77;;;8.38;;
25045;SDS011;13044;49.304;12.840;2023-05-14T00:10:29;10.25;;;8.30;;
25045;SDS011;13044;49.304;12.840;2023-05-14T00:12:57;10.25;;;8.48;;
25045;SDS011;13044;49.304;12.840;2023-05-14T00:15:23;14.18;;;8.60;;
25045;SDS011;13044;49.304;12.840;2023-05-14T00:17:50;14.60;;;9.02;;
25045;SDS011;13044;49.304;12.840;2023-05-14T00:20:17;11.77;;;8.57;;
25045;SDS011;13044;49.304;12.840;2023-05-14T00:22:44;11.23;;;8.07;;
25045;SDS011;13044;49.304;12.840;2023-05-14T00:25:11;10.45;;;8.77;;
25045;SDS011;13044;49.304;12.840;2023-05-14T00:27:38;12.05;;;8.80;;
25045;SDS011;13044;49.304;12.840;2023-05-14T00:30:05;13.18;;;8.88;;
25045;SDS011;13044;49.304;12.840;2023-05-14T00:32:32;12.18;;;8.45;;
25045;SDS011;13044;49.304;12.840;2023-05-14T00:34:59;12.52;;;8.88;;
25045;SDS011;13044;49.304;12.840;2023-05-14T00:37:28;12.15;;;8.68;;
25045;SDS011;13044;49.304;12.840;2023-05-14T00:39:55;13.68;;;8.52;;
25045;SDS011;13044;49.304;12.840;2023-05-14T00:42:22;11.52;;;8.25;;
25045;SDS011;13044;49.304;12.840;2023-05-14T00:44:49;12.00;;;8.40;;
25045;SDS011;13044;49.304;12.840;2023-05-14T00:47:15;10.45;;;8.80;;
25045;SDS011;13044;49.304;12.840;2023-05-14T00:49:43;15.55;;;8.65;;
25045;SDS011;13044;49.304;12.840;2023-05-14T00:52:11;10.45;;;8.10;;
25045;SDS011;13044;49.304;12.840;2023-05-14T00:54:38;11.65;;;9.48;;
25045;SDS011;13044;49.304;12.840;2023-05-14T00:57:05;12.90;;;9.70;;
25045;SDS011;13044;49.304;12.840;2023-05-14T00:59:32;14.82;;;8.65;;
25045;SDS011;13044;49.304;12.840;2023-05-14T01:01:59;13.82;;;8.88;;
25045;SDS011;13044;49.304;12.840;2023-05-14T01:04:26;14.45;;;9.18;;
25045;SDS011;13044;49.304;12.840;2023-05-14T01:06:56;11.75;;;8.82;;
25045;SDS011;13044;49.304;12.840;2023-05-14T01:15:20;11.93;;;8.50;;
25045;SDS011;13044;49.304;12.840;2023-05-14T01:17:56;11.15;;;9.25;;
25045;SDS011;13044;49.304;12.840;2023-05-14T01:20:33;10.82;;;8.52;;
25045;SDS011;13044;49.304;12.840;2023-05-14T01:23:01;13.02;;;9.27;;
25045;SDS011;13044;49.304;12.840;2023-05-14T01:25:29;12.13;;;8.77;;
25045;SDS011;13044;49.304;12.840;2023-05-14T01:33:44;10.93;;;8.48;;
25045;SDS011;13044;49.304;12.840;2023-05-14T01:36:13;10.45;;;8.07;;
25045;SDS011;13044;49.304;12.840;2023-05-14T01:38:40;12.80;;;9.43;;
25045;SDS011;13044;49.304;12.840;2023-05-14T01:41:11;13.68;;;8.63;;
25045;SDS011;13044;49.304;12.840;2023-05-14T01:43:39;12.35;;;9.30;;
25045;SDS011;13044;49.304;12.840;2023-05-14T01:46:06;13.05;;;8.73;;
25045;SDS011;13044;49.304;12.840;2023-05-14T01:48:33;10.85;;;8.48;;
25045;SDS011;13044;49.304;12.840;2023-05-14T01:51:00;12.30;;;9.38;;
25045;SDS011;13044;49.304;12.840;2023-05-14T01:53:27;10.88;;;8.30;;
25045;SDS011;13044;49.304;12.840;2023-05-14T01:55:54;10.70;;;8.15;;
25045;SDS011;13044;49.304;12.840;2023-05-14T01:58:21;11.02;;;9.05;;
25045;SDS011;13044;49.304;12.840;2023-05-14T02:00:48;11.32;;;8.40;;
25045;SDS011;13044;49.304;12.840;2023-05-14T02:03:14;15.55;;;8.38;;
25045;SDS011;13044;49.304;12.840;2023-05-14T02:05:41;12.48;;;8.60;;
25045;SDS011;13044;49.304;12.840;2023-05-14T02:08:08;10.55;;;7.75;;
25045;SDS011;13044;49.304;12.840;2023-05-14T02:10:35;10.18;;;7.50;;
25045;SDS011;13044;49.304;12.840;2023-05-14T02:13:02;9.90;;;8.55;;
25045;SDS011;13044;49.304;12.840;2023-05-14T02:15:29;11.07;;;8.43;;
25045;SDS011;13044;49.304;12.840;2023-05-14T02:17:56;11.25;;;7.93;;
25045;SDS011;13044;49.304;12.840;2023-05-14T02:20:23;13.02;;;8.38;;
25045;SDS011;13044;49.304;12.840;2023-05-14T02:22:50;12.32;;;8.30;;
25045;SDS011;13044;49.304;12.840;2023-05-14T02:25:17;9.95;;;8.20;;
25045;SDS011;13044;49.304;12.840;2023-05-14T02:27:44;9.77;;;7.45;;
25045;SDS011;13044;49.304;12.840;2023-05-14T02:30:11;11.43;;;7.35;;
25045;SDS011;13044;49.304;12.840;2023-05-14T02:32:38;12.02;;;7.75;;
25045;SDS011;13044;49.304;12.840;2023-05-14T02:35:05;11.07;;;7.60;;
25045;SDS011;13044;49.304;12.840;2023-05-14T02:37:33;10.90;;;7.97;;
25045;SDS011;13044;49.304;12.840;2023-05-14T02:40:00;9.52;;;7.63;;
25045;SDS011;13044;49.304;12.840;2023-05-14T02:42:26;9.95;;;7.63;;
25045;SDS011;13044;49.304;12.840;2023-05-14T02:44:53;9.90;;;7.82;;
25045;SDS011;13044;49.304;12.840;2023-05-14T02:47:20;12.00;;;8.40;;
25045;SDS011;13044;49.304;12.840;2023-05-14T02:49:47;12.82;;;8.38;;
25045;SDS011;13044;49.304;12.840;2023-05-14T02:52:14;10.13;;;7.10;;
25045;SDS011;13044;49.304;12.840;2023-05-14T02:54:41;14.18;;;8.23;;
25045;SDS011;13044;49.304;12.840;2023-05-14T02:57:08;10.15;;;7.75;;
25045;SDS011;13044;49.304;12.840;2023-05-14T02:59:35;10.20;;;7.00;;
25045;SDS011;13044;49.304;12.840;2023-05-14T03:02:02;11.50;;;8.35;;
25045;SDS011;13044;49.304;12.840;2023-05-14T03:04:29;9.90;;;7.47;;
25045;SDS011;13044;49.304;12.840;2023-05-14T03:06:56;8.80;;;7.65;;
25045;SDS011;13044;49.304;12.840;2023-05-14T03:09:23;11.50;;;8.63;;
25045;SDS011;13044;49.304;12.840;2023-05-14T03:11:50;10.77;;;8.30;;
25045;SDS011;13044;49.304;12.840;2023-05-14T03:14:17;11.27;;;8.65;;
25045;SDS011;13044;49.304;12.840;2023-05-14T03:16:43;11.90;;;8.40;;
25045;SDS011;13044;49.304;12.840;2023-05-14T03:19:11;12.25;;;9.18;;
25045;SDS011;13044;49.304;12.840;2023-05-14T03:21:38;12.35;;;7.80;;
25045;SDS011;13044;49.304;12.840;2023-05-14T03:24:05;10.80;;;7.88;;
25045;SDS011;13044;49.304;12.840;2023-05-14T03:26:32;12.43;;;8.23;;
25045;SDS011;13044;49.304;12.840;2023-05-14T03:28:59;12.10;;;8.05;;
25045;SDS011;13044;49.304;12.840;2023-05-14T03:31:25;12.30;;;8.32;;
25045;SDS011;13044;49.304;12.840;2023-05-14T03:33:52;11.25;;;8.00;;
25045;SDS011;13044;49.304;12.840;2023-05-14T03:36:19;15.70;;;8.73;;
25045;SDS011;13044;49.304;12.840;2023-05-14T03:38:46;13.88;;;8.75;;
25045;SDS011;13044;49.304;12.840;2023-05-14T03:41:13;12.95;;;9.15;;
25045;SDS011;13044;49.304;12.840;2023-05-14T03:43:40;12.15;;;8.43;;
25045;SDS011;13044;49.304;12.840;2023-05-14T03:46:06;10.95;;;8.05;;
25045;SDS011;13044;49.304;12.840;2023-05-14T03:48:33;13.15;;;8.40;;
25045;SDS011;13044;49.304;12.840;2023-05-14T03:51:00;13.15;;;9.10;;
25045;SDS011;13044;49.304;12.840;2023-05-14T03:53:27;12.70;;;9.40;;
25045;SDS011;13044;49.304;12.840;2023-05-14T03:55:54;13.63;;;8.80;;
25045;SDS011;13044;49.304;12.840;2023-05-14T03:58:21;11.68;;;8.95;;
25045;SDS011;13044;49.304;12.840;2023-05-14T04:00:48;14.15;;;9.65;;
25045;SDS011;13044;49.304;12.840;2023-05-14T04:03:15;11.10;;;8.48;;
25045;SDS011;13044;49.304;12.840;2023-05-14T04:05:42;12.18;;;8.88;;
25045;SDS011;13044;49.304;12.840;2023-05-14T04:08:09;12.07;;;8.98;;
25045;SDS011;13044;49.304;12.840;2023-05-14T04:10:36;14.75;;;10.10;;
25045;SDS011;13044;49.304;12.840;2023-05-14T04:13:03;11.88;;;9.05;;
25045;SDS011;13044;49.304;12.840;2023-05-14T04:15:29;11.27;;;8.55;;
25045;SDS011;13044;49.304;12.840;2023-05-14T04:17:56;12.52;;;8.45;;
25045;SDS011;13044;49.304;12.840;2023-05-14T04:20:23;13.63;;;9.18;;
25045;SDS011;13044;49.304;12.840;2023-05-14T04:22:51;10.27;;;8.65;;
25045;SDS011;13044;49.304;12.840;2023-05-14T04:25:19;13.70;;;9.50;;
25045;SDS011;13044;49.304;12.840;2023-05-14T04:27:46;13.23;;;9.35;;
25045;SDS011;13044;49.304;12.840;2023-05-14T04:30:13;12.85;;;9.52;;
25045;SDS011;13044;49.304;12.840;2023-05-14T04:32:40;12.38;;;8.70;;
25045;SDS011;13044;49.304;12.840;2023-05-14T04:35:07;13.18;;;9.52;;
25045;SDS011;13044;49.304;12.840;2023-05-14T04:37:35;12.80;;;8.35;;
25045;SDS011;13044;49.304;12.840;2023-05-14T04:40:02;18.48;;;9.00;;
25045;SDS011;13044;49.304;12.840;2023-05-14T04:42:30;13.32;;;9.00;;
25045;SDS011;13044;49.304;12.840;2023-05-14T04:44:57;12.38;;;8.63;;
25045;SDS011;13044;49.304;12.840;2023-05-14T04:47:24;13.48;;;8.82;;
25045;SDS011;13044;49.304;12.840;2023-05-14T04:49:51;13.18;;;9.35;;
25045;SDS011;13044;49.304;12.840;2023-05-14T04:52:18;11.07;;;8.38;;
25045;SDS011;13044;49.304;12.840;2023-05-14T04:54:45;12.18;;;9.30;;
25045;SDS011;13044;49.304;12.840;2023-05-14T04:57:12;12.57;;;8.40;;
25045;SDS011;13044;49.304;12.840;2023-05-14T04:59:39;12.68;;;9.05;;
25045;SDS011;13044;49.304;12.840;2023-05-14T05:02:06;12.65;;;9.05;;
25045;SDS011;13044;49.304;12.840;2023-05-14T05:04:32;12.32;;;8.60;;
25045;SDS011;13044;49.304;12.840;2023-05-14T05:06:59;13.55;;;9.07;;
25045;SDS011;13044;49.304;12.840;2023-05-14T05:09:26;12.80;;;8.93;;
25045;SDS011;13044;49.304;12.840;2023-05-14T05:11:53;14.73;;;9.93;;
25045;SDS011;13044;49.304;12.840;2023-05-14T05:14:20;14.10;;;9.68;;
25045;SDS011;13044;49.304;12.840;2023-05-14T05:16:46;13.43;;;9.00;;
25045;SDS011;13044;49.304;12.840;2023-05-14T05:19:13;14.40;;;10.15;;
25045;SDS011;13044;49.304;12.840;2023-05-14T05:21:40;14.73;;;9.80;;
25045;SDS011;13044;49.304;12.840;2023-05-14T05:24:07;14.57;;;9.85;;
25045;SDS011;13044;49.304;12.840;2023-05-14T05:26:34;13.63;;;10.07;;
25045;SDS011;13044;49.304;12.840;2023-05-14T05:29:02;15.15;;;10.68;;
25045;SDS011;13044;49.304;12.840;2023-05-14T05:31:30;15.27;;;10.43;;
25045;SDS011;13044;49.304;12.840;2023-05-14T05:33:57;16.20;;;10.35;;
25045;SDS011;13044;49.304;12.840;2023-05-14T05:36:25;16.67;;;11.02;;
25045;SDS011;13044;49.304;12.840;2023-05-14T05:38:52;14.48;;;10.50;;
25045;SDS011;13044;49.304;12.840;2023-05-14T05:41:20;13.50;;;10.20;;
25045;SDS011;13044;49.304;12.840;2023-05-14T05:43:47;14.35;;;10.35;;
25045;SDS011;13044;49.304;12.840;2023-05-14T05:46:14;12.60;;;10.15;;
25045;SDS011;13044;49.304;12.840;2023-05-14T05:48:41;12.98;;;10.38;;
25045;SDS011;13044;49.304;12.840;2023-05-14T05:51:08;16.00;;;9.13;;
25045;SDS011;13044;49.304;12.840;2023-05-14T05:53:35;15.68;;;10.95;;
25045;SDS011;13044;49.304;12.840;2023-05-14T05:56:02;15.50;;;10.50;;
25045;SDS011;13044;49.304;12.840;2023-05-14T05:58:28;14.57;;;11.02;;
25045;SDS011;13044;49.304;12.840;2023-05-14T06:00:55;14.85;;;11.07;;
25045;SDS011;13044;49.304;12.840;2023-05-14T06:03:23;15.00;;;10.63;;
25045;SDS011;13044;49.304;12.840;2023-05-14T06:05:50;13.70;;;9.73;;
25045;SDS011;13044;49.304;12.840;2023-05-14T06:08:17;14.25;;;10.65;;
25045;SDS011;13044;49.304;12.840;2023-05-14T06:10:44;15.48;;;11.77;;
25045;SDS011;13044;49.304;12.840;2023-05-14T06:13:13;15.32;;;10.88;;
25045;SDS011;13044;49.304;12.840;2023-05-14T06:15:47;14.95;;;9.88;;
25045;SDS011;13044;49.304;12.840;2023-05-14T06:18:14;15.77;;;10.68;;
25045;SDS011;13044;49.304;12.840;2023-05-14T06:20:41;15.00;;;11.15;;
25045;SDS011;13044;49.304;12.840;2023-05-14T06:23:08;12.90;;;10.82;;
25045;SDS011;13044;49.304;12.840;2023-05-14T06:25:36;12.50;;;9.85;;
25045;SDS011;13044;49.304;12.840;2023-05-14T06:28:03;15.43;;;10.95;;
25045;SDS011;13044;49.304;12.840;2023-05-14T06:30:30;15.73;;;11.70;;
25045;SDS011;13044;49.304;12.840;2023-05-14T06:32:57;16.67;;;10.93;;
25045;SDS011;13044;49.304;12.840;2023-05-14T06:35:23;13.40;;;10.43;;
25045;SDS011;13044;49.304;12.840;2023-05-14T06:37:50;13.88;;;10.85;;
25045;SDS011;13044;49.304;12.840;2023-05-14T06:40:17;15.63;;;10.43;;
25045;SDS011;13044;49.304;12.840;2023-05-14T06:42:44;18.95;;;10.77;;
25045;SDS011;13044;49.304;12.840;2023-05-14T06:45:11;15.43;;;10.70;;
25045;SDS011;13044;49.304;12.840;2023-05-14T06:47:38;11.75;;;9.98;;
25045;SDS011;13044;49.304;12.840;2023-05-14T06:50:05;13.32;;;10.10;;
25045;SDS011;13044;49.304;12.840;2023-05-14T06:52:35;12.60;;;10.10;;
25045;SDS011;13044;49.304;12.840;2023-05-14T06:55:03;12.88;;;10.50;;
25045;SDS011;13044;49.304;12.840;2023-05-14T06:57:30;13.68;;;11.05;;
25045;SDS011;13044;49.304;12.840;2023-05-14T06:59:57;16.08;;;11.20;;
25045;SDS011;13044;49.304;12.840;2023-05-14T07:02:24;14.25;;;11.02;;
25045;SDS011;13044;49.304;12.840;2023-05-14T07:04:50;15.52;;;11.10;;
25045;SDS011;13044;49.304;12.840;2023-05-14T07:07:17;12.68;;;10.52;;
25045;SDS011;13044;49.304;12.840;2023-05-14T07:09:46;14.95;;;11.15;;
25045;SDS011;13044;49.304;12.840;2023-05-14T07:12:13;14.38;;;11.27;;
25045;SDS011;13044;49.304;12.840;2023-05-14T07:14:40;15.93;;;10.65;;
25045;SDS011;13044;49.304;12.840;2023-05-14T07:17:07;13.50;;;10.25;;
25045;SDS011;13044;49.304;12.840;2023-05-14T07:19:34;12.90;;;10.70;;
25045;SDS011;13044;49.304;12.840;2023-05-14T07:22:00;12.52;;;9.90;;
25045;SDS011;13044;49.304;12.840;2023-05-14T07:24:27;12.82;;;9.75;;
25045;SDS011;13044;49.304;12.840;2023-05-14T07:26:54;14.75;;;10.18;;
25045;SDS011;13044;49.304;12.840;2023-05-14T07:29:22;13.73;;;10.77;;
25045;SDS011;13044;49.304;12.840;2023-05-14T07:31:50;12.63;;;10.45;;
25045;SDS011;13044;49.304;12.840;2023-05-14T07:34:17;12.18;;;10.05;;
25045;SDS011;13044;49.304;12.840;2023-05-14T07:36:44;13.15;;;9.43;;
25045;SDS011;13044;49.304;12.840;2023-05-14T07:39:11;13.55;;;9.95;;
25045;SDS011;13044;49.304;12.840;2023-05-14T07:41:38;11.05;;;8.45;;
25045;SDS011;13044;49.304;12.840;2023-05-14T07:44:05;10.40;;;9.10;;
25045;SDS011;13044;49.304;12.840;2023-05-14T07:46:32;13.52;;;9.18;;
25045;SDS011;13044;49.304;12.840;2023-05-14T07:48:59;11.85;;;9.48;;
25045;SDS011;13044;49.304;12.840;2023-05-14T07:51:26;12.80;;;9.05;;
25045;SDS011;13044;49.304;12.840;2023-05-14T07:53:53;9.73;;;8.35;;
25045;SDS011;13044;49.304;12.840;2023-05-14T07:56:21;10.18;;;8.80;;
25045;SDS011;13044;49.304;12.840;2023-05-14T07:58:49;9.52;;;8.00;;
25045;SDS011;13044;49.304;12.840;2023-05-14T08:01:16;11.35;;;8.60;;
25045;SDS011;13044;49.304;12.840;2023-05-14T08:03:43;10.38;;;9.00;;
25045;SDS011;13044;49.304;12.840;2023-05-14T08:06:10;14.13;;;9.25;;
25045;SDS011;13044;49.304;12.840;2023-05-14T08:08:37;14.25;;;9.27;;
25045;SDS011;13044;49.304;12.840;2023-05-14T08:11:04;11.93;;;9.45;;
25045;SDS011;13044;49.304;12.840;2023-05-14T08:13:32;10.30;;;7.97;;
25045;SDS011;13044;49.304;12.840;2023-05-14T08:15:59;9.20;;;8.05;;
25045;SDS011;13044;49.304;12.840;2023-05-14T08:18:25;8.90;;;7.47;;
25045;SDS011;13044;49.304;12.840;2023-05-14T08:20:52;8.48;;;7.28;;
25045;SDS011;13044;49.304;12.840;2023-05-14T08:23:19;8.43;;;7.10;;
25045;SDS011;13044;49.304;12.840;2023-05-14T08:25:47;8.88;;;7.38;;
25045;SDS011;13044;49.304;12.840;2023-05-14T08:28:14;10.13;;;7.65;;
25045;SDS011;13044;49.304;12.840;2023-05-14T08:30:41;7.47;;;6.57;;
25045;SDS011;13044;49.304;12.840;2023-05-14T08:33:09;9.13;;;7.40;;
25045;SDS011;13044;49.304;12.840;2023-05-14T08:35:36;9.80;;;7.75;;
25045;SDS011;13044;49.304;12.840;2023-05-14T08:38:03;10.40;;;8.52;;
25045;SDS011;13044;49.304;12.840;2023-05-14T08:40:29;9.38;;;8.23;;
25045;SDS011;13044;49.304;12.840;2023-05-14T08:42:57;9.68;;;7.70;;
25045;SDS011;13044;49.304;12.840;2023-05-14T08:45:30;12.05;;;8.25;;
25045;SDS011;13044;49.304;12.840;2023-05-14T08:47:59;8.45;;;7.10;;
25045;SDS011;13044;49.304;12.840;2023-05-14T08:50:30;9.68;;;7.28;;
25045;SDS011;13044;49.304;12.840;2023-05-14T08:52:57;9.32;;;7.55;;
25045;SDS011;13044;49.304;12.840;2023-05-14T08:55:24;10.35;;;7.88;;
25045;SDS011;13044;49.304;12.840;2023-05-14T08:57:53;11.02;;;8.85;;
25045;SDS011;13044;49.304;12.840;2023-05-14T09:00:21;12.90;;;8.32;;
25045;SDS011;13044;49.304;12.840;2023-05-14T09:02:49;9.02;;;7.47;;
25045;SDS011;13044;49.304;12.840;2023-05-14T09:05:16;9.82;;;7.82;;
25045;SDS011;13044;49.304;12.840;2023-05-14T09:07:45;9.10;;;7.72;;
25045;SDS011;13044;49.304;12.840;2023-05-14T09:10:12;9.35;;;7.45;;
25045;SDS011;13044;49.304;12.840;2023-05-14T09:12:41;9.55;;;7.82;;
25045;SDS011;13044;49.304;12.840;2023-05-14T09:15:08;8.88;;;7.68;;
25045;SDS011;13044;49.304;12.840;2023-05-14T09:17:35;9.00;;;8.02;;
25045;SDS011;13044;49.304;12.840;2023-05-14T09:20:02;13.23;;;7.97;;
25045;SDS011;13044;49.304;12.840;2023-05-14T09:22:29;10.18;;;8.02;;
25045;SDS011;13044;49.304;12.840;2023-05-14T09:25:01;13.80;;;8.38;;
25045;SDS011;13044;49.304;12.840;2023-05-14T09:27:32;11.80;;;8.52;;
25045;SDS011;13044;49.304;12.840;2023-05-14T09:32:41;10.02;;;7.53;;
25045;SDS011;13044;49.304;12.840;2023-05-14T09:35:17;9.80;;;7.93;;
25045;SDS011;13044;49.304;12.840;2023-05-14T09:37:49;8.73;;;7.32;;
25045;SDS011;13044;49.304;12.840;2023-05-14T09:40:19;12.35;;;7.10;;
25045;SDS011;13044;49.304;12.840;2023-05-14T09:42:49;7.78;;;6.90;;
25045;SDS011;13044;49.304;12.840;2023-05-14T09:45:16;7.68;;;6.85;;
25045;SDS011;13044;49.304;12.840;2023-05-14T09:47:43;8.23;;;6.97;;
25045;SDS011;13044;49.304;12.840;2023-05-14T09:50:10;8.40;;;6.50;;
25045;SDS011;13044;49.304;12.840;2023-05-14T09:52:37;8.25;;;7.07;;
25045;SDS011;13044;49.304;12.840;2023-05-14T09:55:05;10.63;;;7.47;;
25045;SDS011;13044;49.304;12.840;2023-05-14T09:57:33;9.43;;;7.18;;
25045;SDS011;13044;49.304;12.840;2023-05-14T10:00:00;7.47;;;6.22;;
25045;SDS011;13044;49.304;12.840;2023-05-14T10:02:36;8.38;;;6.63;;
25045;SDS011;13044;49.304;12.840;2023-05-14T10:05:06;10.82;;;6.78;;
25045;SDS011;13044;49.304;12.840;2023-05-14T10:07:35;9.25;;;6.18;;
25045;SDS011;13044;49.304;12.840;2023-05-14T10:10:14;7.50;;;6.65;;
25045;SDS011;13044;49.304;12.840;2023-05-14T10:12:50;9.20;;;6.63;;
25045;SDS011;13044;49.304;12.840;2023-05-14T10:15:23;10.93;;;6.55;;
25045;SDS011;13044;49.304;12.840;2023-05-14T10:18:27;7.22;;;6.32;;
25045;SDS011;13044;49.304;12.840;2023-05-14T10:21:03;9.57;;;6.50;;
25045;SDS011;13044;49.304;12.840;2023-05-14T10:23:32;11.10;;;6.53;;
25045;SDS011;13044;49.304;12.840;2023-05-14T10:26:02;6.55;;;5.80;;
25045;SDS011;13044;49.304;12.840;2023-05-14T10:28:30;9.85;;;5.97;;
25045;SDS011;13044;49.304;12.840;2023-05-14T10:30:58;6.07;;;5.47;;
25045;SDS011;13044;49.304;12.840;2023-05-14T10:33:26;7.43;;;6.30;;
25045;SDS011;13044;49.304;12.840;2023-05-14T10:35:57;8.82;;;6.15;;
25045;SDS011;13044;49.304;12.840;2023-05-14T10:38:26;8.95;;;6.25;;
25045;SDS011;13044;49.304;12.840;2023-05-14T10:41:10;7.30;;;5.00;;
25045;SDS011;13044;49.304;12.840;2023-05-14T10:43:43;6.78;;;5.72;;
25045;SDS011;13044;49.304;12.840;2023-05-14T10:46:10;6.22;;;5.15;;
25045;SDS011;13044;49.304;12.840;2023-05-14T10:48:42;7.32;;;6.10;;
25045;SDS011;13044;49.304;12.840;2023-05-14T10:51:09;7.10;;;5.75;;
25045;SDS011;13044;49.304;12.840;2023-05-14T10:53:38;7.40;;;5.75;;
25045;SDS011;13044;49.304;12.840;2023-05-14T10:56:08;6.95;;;5.63;;
25045;SDS011;13044;49.304;12.840;2023-05-14T10:58:41;6.80;;;5.68;;
25045;SDS011;13044;49.304;12.840;2023-05-14T11:01:10;6.68;;;4.82;;
25045;SDS011;13044;49.304;12.840;2023-05-14T11:03:39;7.30;;;5.78;;
25045;SDS011;13044;49.304;12.840;2023-05-14T11:06:12;8.65;;;5.70;;
25045;SDS011;13044;49.304;12.840;2023-05-14T11:08:41;15.00;;;6.82;;
25045;SDS011;13044;49.304;12.840;2023-05-14T11:11:09;6.70;;;5.72;;
25045;SDS011;13044;49.304;12.840;2023-05-14T11:13:36;14.60;;;6.25;;
25045;SDS011;13044;49.304;12.840;2023-05-14T11:16:03;9.35;;;6.20;;
25045;SDS011;13044;49.304;12.840;2023-05-14T11:18:47;5.43;;;4.90;;
25045;SDS011;13044;49.304;12.840;2023-05-14T11:21:27;6.40;;;5.30;;
25045;SDS011;13044;49.304;12.840;2023-05-14T11:23:55;6.07;;;4.88;;
25045;SDS011;13044;49.304;12.840;2023-05-14T11:26:22;5.82;;;4.47;;
25045;SDS011;13044;49.304;12.840;2023-05-14T11:28:49;5.45;;;4.18;;
25045;SDS011;13044;49.304;12.840;2023-05-14T11:31:16;5.70;;;4.45;;
25045;SDS011;13044;49.304;12.840;2023-05-14T11:33:44;6.13;;;4.40;;
25045;SDS011;13044;49.304;12.840;2023-05-14T11:36:11;5.30;;;4.60;;
25045;SDS011;13044;49.304;12.840;2023-05-14T11:38:44;5.15;;;4.28;;
25045;SDS011;13044;49.304;12.840;2023-05-14T11:41:17;5.95;;;4.93;;
25045;SDS011;13044;49.304;12.840;2023-05-14T11:43:46;5.07;;;4.20;;
25045;SDS011;13044;49.304;12.840;2023-05-14T11:46:16;8.45;;;5.57;;
25045;SDS011;13044;49.304;12.840;2023-05-14T11:48:44;6.30;;;4.35;;
25045;SDS011;13044;49.304;12.840;2023-05-14T11:51:11;5.75;;;4.78;;
25045;SDS011;13044;49.304;12.840;2023-05-14T11:53:38;6.88;;;4.55;;
25045;SDS011;13044;49.304;12.840;2023-05-14T11:56:05;6.63;;;5.00;;
25045;SDS011;13044;49.304;12.840;2023-05-14T11:58:34;7.35;;;4.97;;
25045;SDS011;13044;49.304;12.840;2023-05-14T12:01:01;7.13;;;5.00;;
25045;SDS011;13044;49.304;12.840;2023-05-14T12:03:29;7.25;;;4.43;;
25045;SDS011;13044;49.304;12.840;2023-05-14T12:05:56;6.50;;;5.30;;
25045;SDS011;13044;49.304;12.840;2023-05-14T12:08:25;7.13;;;4.50;;
25045;SDS011;13044;49.304;12.840;2023-05-14T12:10:55;9.90;;;5.22;;
25045;SDS011;13044;49.304;12.840;2023-05-14T12:13:25;5.88;;;4.95;;
25045;SDS011;13044;49.304;12.840;2023-05-14T12:15:55;6.20;;;5.13;;
25045;SDS011;13044;49.304;12.840;2023-05-14T12:21:03;6.75;;;5.13;;
25045;SDS011;13044;49.304;12.840;2023-05-14T12:23:33;8.02;;;5.18;;
25045;SDS011;13044;49.304;12.840;2023-05-14T12:26:00;5.35;;;4.80;;
25045;SDS011;13044;49.304;12.840;2023-05-14T12:28:32;6.22;;;5.20;;
25045;SDS011;13044;49.304;12.840;2023-05-14T12:31:03;8.25;;;5.40;;
25045;SDS011;13044;49.304;12.840;2023-05-14T12:33:30;12.15;;;6.72;;
25045;SDS011;13044;49.304;12.840;2023-05-14T12:35:57;10.25;;;8.27;;
25045;SDS011;13044;49.304;12.840;2023-05-14T12:38:30;11.30;;;7.65;;
25045;SDS011;13044;49.304;12.840;2023-05-14T12:40:57;12.25;;;7.60;;
25045;SDS011;13044;49.304;12.840;2023-05-14T12:43:24;15.15;;;6.97;;
25045;SDS011;13044;49.304;12.840;2023-05-14T12:45:56;8.07;;;6.80;;
25045;SDS011;13044;49.304;12.840;2023-05-14T12:48:23;6.03;;;4.95;;
25045;SDS011;13044;49.304;12.840;2023-05-14T12:50:50;5.47;;;4.45;;
25045;SDS011;13044;49.304;12.840;2023-05-14T12:53:16;8.23;;;4.60;;
25045;SDS011;13044;49.304;12.840;2023-05-14T12:55:43;6.60;;;4.63;;
25045;SDS011;13044;49.304;12.840;2023-05-14T12:58:10;5.50;;;4.70;;
25045;SDS011;13044;49.304;12.840;2023-05-14T13:00:37;8.60;;;5.10;;
25045;SDS011;13044;49.304;12.840;2023-05-14T13:03:04;5.82;;;5.22;;
25045;SDS011;13044;49.304;12.840;2023-05-14T13:05:31;5.88;;;4.72;;
25045;SDS011;13044;49.304;12.840;2023-05-14T13:07:59;6.35;;;5.25;;
25045;SDS011;13044;49.304;12.840;2023-05-14T13:10:28;6.55;;;4.78;;
25045;SDS011;13044;49.304;12.840;2023-05-14T13:12:55;6.75;;;5.28;;
25045;SDS011;13044;49.304;12.840;2023-05-14T13:15:23;5.40;;;4.90;;
25045;SDS011;13044;49.304;12.840;2023-05-14T13:17:50;7.20;;;5.13;;
25045;SDS011;13044;49.304;12.840;2023-05-14T13:20:17;5.72;;;5.07;;
25045;SDS011;13044;49.304;12.840;2023-05-14T13:22:44;5.32;;;4.53;;
25045;SDS011;13044;49.304;12.840;2023-05-14T13:25:11;5.20;;;4.00;;
25045;SDS011;13044;49.304;12.840;2023-05-14T13:27:38;6.40;;;4.20;;
25045;SDS011;13044;49.304;12.840;2023-05-14T13:30:05;5.18;;;4.18;;
25045;SDS011;13044;49.304;12.840;2023-05-14T13:32:33;6.55;;;4.28;;
25045;SDS011;13044;49.304;12.840;2023-05-14T13:34:59;5.03;;;4.03;;
25045;SDS011;13044;49.304;12.840;2023-05-14T13:37:26;5.88;;;4.10;;
25045;SDS011;13044;49.304;12.840;2023-05-14T13:39:53;5.20;;;4.20;;
25045;SDS011;13044;49.304;12.840;2023-05-14T13:42:20;5.53;;;3.97;;
25045;SDS011;13044;49.304;12.840;2023-05-14T13:44:48;5.45;;;3.90;;
25045;SDS011;13044;49.304;12.840;2023-05-14T13:47:15;4.60;;;3.85;;
25045;SDS011;13044;49.304;12.840;2023-05-14T13:49:42;3.97;;;3.63;;
25045;SDS011;13044;49.304;12.840;2023-05-14T13:52:09;4.80;;;3.63;;
25045;SDS011;13044;49.304;12.840;2023-05-14T13:54:36;4.38;;;3.70;;
25045;SDS011;13044;49.304;12.840;2023-05-14T13:57:03;5.55;;;3.25;;
25045;SDS011;13044;49.304;12.840;2023-05-14T13:59:30;4.30;;;3.78;;
25045;SDS011;13044;49.304;12.840;2023-05-14T14:01:57;5.03;;;2.92;;
25045;SDS011;13044;49.304;12.840;2023-05-14T14:04:24;3.45;;;3.10;;
25045;SDS011;13044;49.304;12.840;2023-05-14T14:06:54;5.28;;;3.22;;
25045;SDS011;13044;49.304;12.840;2023-05-14T14:09:21;3.50;;;3.03;;
25045;SDS011;13044;49.304;12.840;2023-05-14T14:11:49;3.47;;;3.15;;
25045;SDS011;13044;49.304;12.840;2023-05-14T14:14:16;2.95;;;2.70;;
25045;SDS011;13044;49.304;12.840;2023-05-14T14:16:43;2.80;;;2.47;;
25045;SDS011;13044;49.304;12.840;2023-05-14T14:19:10;2.60;;;2.40;;
25045;SDS011;13044;49.304;12.840;2023-05-14T14:21:37;4.25;;;3.10;;
25045;SDS011;13044;49.304;12.840;2023-05-14T14:24:07;4.05;;;2.75;;
25045;SDS011;13044;49.304;12.840;2023-05-14T14:26:34;3.10;;;2.80;;
25045;SDS011;13044;49.304;12.840;2023-05-14T14:29:01;3.20;;;2.78;;
25045;SDS011;13044;49.304;12.840;2023-05-14T14:31:28;3.92;;;3.20;;
25045;SDS011;13044;49.304;12.840;2023-05-14T14:33:55;8.23;;;6.47;;
25045;SDS011;13044;49.304;12.840;2023-05-14T14:36:22;7.22;;;5.45;;
25045;SDS011;13044;49.304;12.840;2023-05-14T14:38:48;4.85;;;3.33;;
25045;SDS011;13044;49.304;12.840;2023-05-14T14:41:15;9.85;;;3.50;;
25045;SDS011;13044;49.304;12.840;2023-05-14T14:43:42;6.07;;;4.95;;
25045;SDS011;13044;49.304;12.840;2023-05-14T14:46:09;8.70;;;5.78;;